Time;durP1;ratioP1;P1;durP2;ratioP2;P2;SDS_P1;SDS_P2;PMS_P1;PMS_P2;Temp;Humidity;BMP_temperature;BMP_pressure;BME280_temperature;BME280_humidity;BME280_pressure;Samples;Min_cycle;Max_cycle;Signal;HPM_P1;HPM_P2
2022/11/20 00:01:18;;;;;;;22.25;9.55;;;6.50;1.00;;;;;;5000122;28;20385;-52
2022/11/20 00:03:44;;;;;;;21.42;8.02;;;6.50;1.00;;;;;;5002608;28;20392;-53
2022/11/20 00:06:13;;;;;;;25.35;8.90;;;6.50;1.00;;;;;;5000304;28;20424;-54
2022/11/20 00:08:39;;;;;;;24.80;7.70;;;6.40;1.00;;;;;;4998719;28;20528;-54
2022/11/20 00:11:07;;;;;;;19.58;8.18;;;7.10;1.00;;;;;;5001325;28;20405;-53
2022/11/20 00:13:34;;;;;;;22.40;8.10;;;6.40;1.00;;;;;;4995666;28;20522;-53
2022/11/20 00:16:01;;;;;;;22.20;7.70;;;6.60;1.00;;;;;;4993890;28;20413;-54
2022/11/20 00:18:27;;;;;;;16.55;7.25;;;6.20;1.00;;;;;;5000048;28;20385;-55
2022/11/20 00:20:53;;;;;;;13.30;5.78;;;6.10;1.00;;;;;;4995198;28;20587;-54
2022/11/20 00:23:19;;;;;;;16.50;7.13;;;6.20;1.00;;;;;;4980339;28;20391;-60
2022/11/20 00:25:44;;;;;;;17.40;6.65;;;6.30;1.00;;;;;;4987614;28;20399;-53
2022/11/20 00:28:10;;;;;;;17.40;7.53;;;7.70;1.00;;;;;;4990478;28;20405;-53
2022/11/20 00:30:36;;;;;;;18.03;6.90;;;6.30;1.00;;;;;;4989935;28;20389;-52
2022/11/20 00:33:01;;;;;;;15.23;6.97;;;8.10;1.00;;;;;;4990393;28;20515;-53
2022/11/20 00:35:27;;;;;;;20.97;7.20;;;6.40;1.00;;;;;;4990162;28;20821;-54
2022/11/20 00:37:52;;;;;;;16.27;7.13;;;6.40;1.00;;;;;;4990700;28;20390;-54
2022/11/20 00:40:18;;;;;;;14.57;6.10;;;6.50;1.00;;;;;;4989967;28;20525;-59
2022/11/20 00:42:43;;;;;;;17.77;7.65;;;8.20;1.00;;;;;;5003002;28;20728;-56
2022/11/20 00:45:09;;;;;;;16.40;7.20;;;6.50;1.00;;;;;;5010118;28;20388;-53
2022/11/20 00:47:35;;;;;;;12.57;5.30;;;6.40;1.00;;;;;;5007631;28;20400;-52
2022/11/20 00:50:00;;;;;;;12.50;5.80;;;6.30;1.00;;;;;;5004821;28;20413;-53
2022/11/20 00:52:26;;;;;;;14.07;6.27;;;6.40;1.00;;;;;;5008534;28;20480;-52
2022/11/20 00:54:51;;;;;;;14.20;6.47;;;7.80;1.00;;;;;;5008518;28;21113;-54
2022/11/20 00:57:17;;;;;;;13.27;5.97;;;6.50;1.00;;;;;;5007773;28;20389;-60
2022/11/20 00:59:42;;;;;;;14.40;6.38;;;8.30;1.00;;;;;;5011076;28;20385;-53
2022/11/20 01:02:08;;;;;;;12.97;5.30;;;6.50;1.00;;;;;;5008196;28;20401;-54
2022/11/20 01:04:33;;;;;;;10.88;5.57;;;6.40;1.00;;;;;;5008787;28;20538;-53
2022/11/20 01:06:59;;;;;;;13.57;5.90;;;7.20;1.00;;;;;;5009079;28;20411;-53
2022/11/20 01:09:25;;;;;;;13.38;6.07;;;6.90;1.00;;;;;;5008545;28;20377;-55
2022/11/20 01:11:50;;;;;;;19.93;6.70;;;6.30;1.00;;;;;;5009410;28;20790;-52
2022/11/20 01:14:18;;;;;;;18.65;6.55;;;6.30;1.00;;;;;;5008831;28;20418;-59
2022/11/20 01:16:48;;;;;;;14.02;6.32;;;6.30;1.00;;;;;;5009295;28;20428;-53
2022/11/20 01:19:16;;;;;;;13.38;5.88;;;6.30;1.00;;;;;;5008934;28;20389;-54
2022/11/20 01:21:44;;;;;;;15.35;6.63;;;6.50;1.00;;;;;;5008193;28;20377;-53
2022/11/20 01:24:15;;;;;;;17.45;7.80;;;6.40;1.00;;;;;;5007157;28;20389;-53
2022/11/20 01:26:42;;;;;;;14.20;6.68;;;6.30;1.00;;;;;;5008207;28;20381;-53
2022/11/20 01:29:14;;;;;;;16.40;7.40;;;7.00;1.00;;;;;;5006337;28;20417;-53
2022/11/20 01:31:39;;;;;;;16.60;6.50;;;6.40;1.00;;;;;;5008709;28;20592;-53
2022/11/20 01:34:08;;;;;;;17.75;7.72;;;7.00;1.00;;;;;;5008109;28;20503;-53
2022/11/20 01:36:36;;;;;;;15.88;7.03;;;6.40;1.00;;;;;;5007929;28;20393;-53
2022/11/20 01:39:04;;;;;;;14.63;6.78;;;6.40;1.00;;;;;;5008651;28;20388;-53
2022/11/20 01:44:19;;;;;;;16.42;7.15;;;7.60;1.00;;;;;;5007157;28;20468;-53
2022/11/20 01:47:04;;;;;;;15.43;7.10;;;7.50;1.00;;;;;;5008338;28;20388;-55
2022/11/20 01:49:44;;;;;;;16.30;6.72;;;6.50;1.00;;;;;;5005631;28;20472;-53
2022/11/20 01:52:18;;;;;;;15.25;6.90;;;6.50;1.00;;;;;;5006391;28;20427;-53
2022/11/20 01:54:51;;;;;;;14.10;6.97;;;6.50;1.00;;;;;;5008156;28;20401;-53
2022/11/20 01:57:19;;;;;;;17.23;6.93;;;6.50;1.00;;;;;;5008090;28;20459;-59
2022/11/20 01:59:53;;;;;;;16.65;7.03;;;6.40;1.00;;;;;;5007767;28;20409;-53
2022/11/20 02:02:20;;;;;;;14.30;6.40;;;6.40;1.00;;;;;;5006679;28;20408;-60
2022/11/20 02:04:47;;;;;;;15.35;7.25;;;6.00;1.00;;;;;;5008354;28;20430;-53
2022/11/20 02:07:14;;;;;;;15.35;7.03;;;6.50;1.00;;;;;;5008365;28;20496;-53
2022/11/20 02:09:39;;;;;;;14.65;6.45;;;6.50;1.00;;;;;;5007686;28;20391;-53
2022/11/20 02:13:42;;;;;;;12.50;5.40;;;6.50;1.00;;;;;;5007879;28;20444;-53
2022/11/20 02:14:51;;;;;;;13.38;6.00;;;6.50;1.00;;;;;;5005728;28;20829;-53
2022/11/20 02:17:16;;;;;;;11.93;5.45;;;7.80;1.00;;;;;;5007916;28;20479;-54
2022/11/20 02:19:42;;;;;;;11.53;5.50;;;6.80;1.00;;;;;;5007758;28;20392;-53
2022/11/20 02:22:20;;;;;;;10.75;4.78;;;6.90;1.00;;;;;;5004675;28;20750;-53
2022/11/20 02:24:48;;;;;;;9.23;3.95;;;8.70;1.00;;;;;;5007801;28;20891;-53
2022/11/20 02:27:15;;;;;;;8.13;3.50;;;7.00;1.00;;;;;;5007863;28;20384;-53
2022/11/20 02:29:50;;;;;;;10.10;4.25;;;7.00;1.00;;;;;;5007354;28;20484;-53
2022/11/20 02:32:26;;;;;;;10.02;2.92;;;7.10;1.00;;;;;;5007667;28;20492;-52
2022/11/20 02:34:52;;;;;;;9.27;3.50;;;7.20;99.90;;;;;;5005609;28;20397;-53
2022/11/20 02:37:19;;;;;;;8.18;3.47;;;7.20;99.90;;;;;;5007782;28;20932;-60
2022/11/20 02:39:47;;;;;;;8.17;3.00;;;7.20;99.90;;;;;;5007597;28;20439;-52
2022/11/20 02:42:13;;;;;;;7.15;2.75;;;7.00;99.90;;;;;;5007526;28;20936;-55
2022/11/20 02:44:39;;;;;;;9.20;3.13;;;7.00;99.90;;;;;;5007467;28;20385;-53
2022/11/20 02:47:04;;;;;;;6.32;2.53;;;7.00;99.90;;;;;;5009365;28;20909;-53
2022/11/20 02:49:30;;;;;;;7.75;2.38;;;7.00;6.70;;;;;;5011373;28;20395;-55
2022/11/20 02:51:55;;;;;;;6.30;2.40;;;8.00;66.60;;;;;;5012038;28;20491;-53
2022/11/20 02:54:22;;;;;;;8.25;2.55;;;7.00;1.00;;;;;;5011975;28;20406;-60
2022/11/20 02:56:47;;;;;;;7.07;2.60;;;7.00;58.60;;;;;;5011975;28;20492;-53
2022/11/20 02:59:13;;;;;;;7.10;2.50;;;8.00;11.60;;;;;;5012097;28;20787;-51
2022/11/20 03:01:39;;;;;;;5.93;2.30;;;7.10;1.00;;;;;;5013165;28;20463;-54
2022/11/20 03:04:04;;;;;;;6.57;2.30;;;8.80;1.00;;;;;;5011741;28;20734;-56
2022/11/20 03:06:30;;;;;;;7.28;2.60;;;7.00;1.00;;;;;;5011070;28;20703;-53
2022/11/20 03:08:56;;;;;;;7.85;2.95;;;7.00;1.00;;;;;;5011707;28;20389;-52
2022/11/20 03:11:21;;;;;;;6.33;2.30;;;7.00;1.00;;;;;;5011000;28;20399;-59
2022/11/20 03:13:47;;;;;;;6.47;2.53;;;6.90;1.00;;;;;;5011235;28;20739;-53
2022/11/20 03:16:16;;;;;;;6.57;2.30;;;7.10;1.00;;;;;;5011135;28;20429;-53
2022/11/20 03:18:42;;;;;;;7.53;2.47;;;6.90;1.00;;;;;;5010587;28;20468;-53
2022/11/20 03:21:09;;;;;;;6.45;2.60;;;6.80;1.00;;;;;;5011155;28;20468;-53
2022/11/20 03:23:36;;;;;;;7.75;2.70;;;6.80;1.00;;;;;;5010401;28;20451;-53
2022/11/20 03:26:19;;;;;;;7.40;2.90;;;6.80;1.00;;;;;;5011888;28;20727;-52
2022/11/20 03:28:53;;;;;;;7.28;2.50;;;6.60;1.00;;;;;;5010070;28;20472;-52
2022/11/20 03:31:22;;;;;;;7.63;2.55;;;6.60;1.00;;;;;;5010880;28;20826;-58
2022/11/20 03:33:47;;;;;;;5.75;2.30;;;6.50;6.20;;;;;;5010846;28;20924;-53
2022/11/20 03:36:15;;;;;;;9.40;3.03;;;6.40;99.90;;;;;;5010844;28;20400;-53
2022/11/20 03:38:41;;;;;;;8.65;3.03;;;6.50;99.90;;;;;;5008035;28;20388;-52
2022/11/20 03:41:13;;;;;;;7.00;2.78;;;6.50;99.90;;;;;;5007145;28;20520;-53
2022/11/20 03:43:39;;;;;;;7.38;2.70;;;6.40;99.90;;;;;;5008998;28;20889;-52
2022/11/20 03:46:05;;;;;;;6.93;2.60;;;6.40;99.90;;;;;;5009578;28;20381;-53
2022/11/20 03:48:31;;;;;;;8.10;3.00;;;6.50;99.90;;;;;;5009200;28;20440;-53
2022/11/20 03:51:11;;;;;;;8.60;2.72;;;6.50;99.90;;;;;;5009864;28;20839;-53
2022/11/20 03:53:37;;;;;;;6.55;2.40;;;6.40;99.90;;;;;;5004823;28;20440;-55
2022/11/20 03:56:03;;;;;;;6.63;2.60;;;6.30;99.90;;;;;;5009895;28;20899;-53
2022/11/20 03:58:28;;;;;;;8.40;2.72;;;6.40;99.90;;;;;;5001442;28;20487;-55
2022/11/20 04:00:54;;;;;;;7.90;2.70;;;7.50;99.90;;;;;;5009805;28;20957;-53
2022/11/20 04:03:20;;;;;;;7.00;2.70;;;8.00;99.90;;;;;;5009272;28;20776;-59
2022/11/20 04:05:45;;;;;;;6.53;2.67;;;6.50;99.90;;;;;;5009234;28;20389;-57
2022/11/20 04:08:11;;;;;;;7.90;3.07;;;6.60;99.90;;;;;;5009700;28;20385;-53
2022/11/20 04:10:37;;;;;;;7.03;2.63;;;7.40;99.90;;;;;;5008720;28;20471;-53
2022/11/20 04:13:03;;;;;;;8.20;3.22;;;6.80;99.90;;;;;;5009682;28;20905;-56
2022/11/20 04:15:28;;;;;;;8.23;3.30;;;8.20;99.90;;;;;;5009023;28;20550;-53
2022/11/20 04:17:54;;;;;;;7.63;2.73;;;8.00;99.90;;;;;;5009706;28;20475;-54
2022/11/20 04:20:20;;;;;;;9.63;2.58;;;6.50;99.90;;;;;;5009431;28;20406;-59
2022/11/20 04:22:45;;;;;;;8.67;2.90;;;6.50;99.90;;;;;;5009341;28;20385;-53
2022/11/20 04:25:11;;;;;;;7.18;2.78;;;6.40;99.90;;;;;;5009612;28;20791;-53
2022/11/20 04:27:37;;;;;;;7.40;2.80;;;6.40;99.90;;;;;;5008798;28;20385;-54
2022/11/20 04:30:02;;;;;;;7.18;3.00;;;6.40;99.90;;;;;;5009165;28;20925;-56
2022/11/20 04:32:28;;;;;;;7.60;2.60;;;6.30;99.90;;;;;;5007953;28;20455;-55
2022/11/20 04:34:54;;;;;;;9.63;3.33;;;7.00;99.90;;;;;;5009488;28;20389;-53
2022/11/20 04:37:19;;;;;;;7.10;2.70;;;6.50;99.90;;;;;;5008638;28;20449;-59
2022/11/20 04:39:45;;;;;;;8.17;3.10;;;6.40;99.90;;;;;;5009103;28;20511;-53
2022/11/20 04:42:28;;;;;;;7.80;2.70;;;7.90;99.90;;;;;;4946571;28;1776576;-54
2022/11/20 04:44:55;;;;;;;7.93;3.10;;;6.40;99.90;;;;;;5007998;28;20417;-53
2022/11/20 04:47:21;;;;;;;6.05;2.00;;;6.50;99.90;;;;;;5009592;28;20416;-59
2022/11/20 04:49:47;;;;;;;7.23;3.23;;;7.20;99.90;;;;;;5009097;28;20491;-54
2022/11/20 04:52:13;;;;;;;9.68;2.95;;;7.50;99.90;;;;;;5009768;28;20492;-53
2022/11/20 04:54:38;;;;;;;8.00;3.10;;;6.40;99.90;;;;;;5008669;28;21073;-52
2022/11/20 04:57:04;;;;;;;7.25;2.90;;;6.40;99.90;;;;;;5009364;28;20400;-54
2022/11/20 04:59:30;;;;;;;8.10;2.90;;;6.40;99.90;;;;;;5008850;28;20376;-53
2022/11/20 05:01:55;;;;;;;7.88;3.10;;;6.30;99.90;;;;;;5009361;28;20389;-53
2022/11/20 05:04:21;;;;;;;7.60;3.10;;;6.40;99.90;;;;;;5008861;28;20397;-59
2022/11/20 05:06:46;;;;;;;6.53;2.45;;;6.30;99.90;;;;;;5008880;28;20858;-52
2022/11/20 05:09:12;;;;;;;7.27;2.77;;;6.30;99.90;;;;;;5009264;28;20730;-53
2022/11/20 05:11:38;;;;;;;8.75;3.33;;;6.40;99.90;;;;;;5008537;28;20504;-53
2022/11/20 05:14:04;;;;;;;8.60;3.40;;;6.50;99.90;;;;;;5009270;28;20435;-53
2022/11/20 05:16:29;;;;;;;7.90;3.30;;;6.50;99.90;;;;;;5008215;28;20810;-52
2022/11/20 05:18:55;;;;;;;7.20;2.78;;;6.50;67.80;;;;;;4991356;28;20528;-53
2022/11/20 05:21:21;;;;;;;8.15;3.28;;;6.40;16.60;;;;;;5008663;28;20417;-59
2022/11/20 05:23:47;;;;;;;6.97;2.95;;;6.50;99.70;;;;;;5009088;28;20427;-53
2022/11/20 05:26:19;;;;;;;6.97;2.60;;;7.50;99.90;;;;;;5009141;28;20393;-53
2022/11/20 05:28:45;;;;;;;7.10;2.70;;;6.50;99.90;;;;;;5009035;28;20733;-52
2022/11/20 05:31:22;;;;;;;7.85;2.63;;;6.50;23.10;;;;;;5008888;28;20388;-53
2022/11/20 05:33:48;;;;;;;6.70;2.60;;;7.50;1.00;;;;;;5008570;28;20471;-53
2022/11/20 05:36:15;;;;;;;6.45;2.60;;;6.50;38.10;;;;;;5008680;28;20389;-52
2022/11/20 05:38:41;;;;;;;7.88;3.03;;;6.90;1.00;;;;;;5008168;28;20376;-53
2022/11/20 05:41:13;;;;;;;7.07;2.80;;;6.50;3.20;;;;;;5008719;28;20396;-52
2022/11/20 05:43:40;;;;;;;8.43;2.70;;;6.50;41.60;;;;;;5008428;28;20547;-53
2022/11/20 05:46:08;;;;;;;10.60;3.00;;;6.60;1.00;;;;;;5008925;28;20453;-53
2022/11/20 05:48:36;;;;;;;9.95;3.25;;;6.60;1.00;;;;;;5008148;28;20881;-54
2022/11/20 05:51:03;;;;;;;8.02;2.90;;;6.60;1.00;;;;;;5008140;28;20396;-53
2022/11/20 05:53:29;;;;;;;6.80;2.80;;;6.70;1.00;;;;;;5007642;28;20594;-54
2022/11/20 05:56:10;;;;;;;7.18;2.90;;;8.00;1.00;;;;;;5008555;28;20940;-52
2022/11/20 05:58:37;;;;;;;10.43;2.80;;;6.50;1.00;;;;;;5005712;28;20392;-52
2022/11/20 06:01:13;;;;;;;6.57;2.72;;;6.60;1.00;;;;;;5008573;28;20469;-52
2022/11/20 06:03:39;;;;;;;9.50;2.90;;;6.50;1.00;;;;;;5006226;28;20408;-53
2022/11/20 06:06:06;;;;;;;10.18;2.97;;;6.60;18.50;;;;;;5004134;28;20444;-54
2022/11/20 06:08:32;;;;;;;6.90;2.90;;;6.60;21.00;;;;;;5003874;28;20427;-53
2022/11/20 06:10:57;;;;;;;9.18;3.03;;;6.70;1.80;;;;;;5009062;28;20389;-53
2022/11/20 06:13:23;;;;;;;9.20;2.90;;;6.70;1.00;;;;;;5000449;28;20420;-60
2022/11/20 06:15:53;;;;;;;7.30;2.63;;;6.80;1.00;;;;;;4971152;28;20832;-54
2022/11/20 06:18:19;;;;;;;7.35;2.90;;;6.80;1.00;;;;;;4996753;28;20393;-53
2022/11/20 06:20:46;;;;;;;7.10;2.70;;;7.90;1.00;;;;;;5007497;28;20392;-55
2022/11/20 06:23:12;;;;;;;7.80;2.80;;;7.60;1.00;;;;;;5007190;28;20405;-53
2022/11/20 06:25:42;;;;;;;6.90;2.65;;;6.70;1.00;;;;;;5008131;28;20907;-53
2022/11/20 06:28:08;;;;;;;6.18;2.47;;;6.80;1.00;;;;;;5008832;28;20384;-53
2022/11/20 06:30:34;;;;;;;6.78;2.55;;;6.70;1.00;;;;;;5007831;28;20475;-53
2022/11/20 06:33:00;;;;;;;7.30;2.50;;;6.80;1.00;;;;;;5008628;28;20560;-55
2022/11/20 06:35:25;;;;;;;6.00;2.40;;;6.70;1.00;;;;;;5007851;28;20381;-53
2022/11/20 06:37:51;;;;;;;7.47;2.75;;;6.70;17.30;;;;;;5008628;28;20782;-53
2022/11/20 06:40:17;;;;;;;6.20;2.70;;;6.70;1.00;;;;;;4992065;28;20477;-54
2022/11/20 06:42:42;;;;;;;6.95;2.50;;;6.60;27.80;;;;;;4988893;28;20415;-53
2022/11/20 06:45:09;;;;;;;6.57;2.20;;;6.70;94.90;;;;;;4988758;28;20413;-57
2022/11/20 06:47:34;;;;;;;6.75;2.08;;;6.70;64.70;;;;;;4987740;28;20387;-56
2022/11/20 06:50:00;;;;;;;7.55;2.60;;;6.70;14.80;;;;;;4988954;28;20405;-58
2022/11/20 06:52:25;;;;;;;8.27;2.70;;;6.70;1.00;;;;;;5003274;28;20425;-55
2022/11/20 06:54:51;;;;;;;7.10;2.72;;;6.70;11.50;;;;;;5004901;28;20404;-53
2022/11/20 06:57:17;;;;;;;6.20;2.50;;;6.70;1.00;;;;;;4996110;28;20748;-53
2022/11/20 06:59:42;;;;;;;6.97;2.38;;;6.70;99.90;;;;;;4999436;28;20500;-54
2022/11/20 07:02:12;;;;;;;7.10;2.67;;;6.80;18.10;;;;;;4996237;28;20418;-53
2022/11/20 07:04:39;;;;;;;5.80;2.10;;;6.80;1.00;;;;;;4993321;28;20433;-53
2022/11/20 07:07:05;;;;;;;7.10;2.60;;;6.80;1.00;;;;;;4995379;28;20410;-53
2022/11/20 07:09:32;;;;;;;8.32;2.75;;;6.80;1.00;;;;;;5001269;28;20428;-56
2022/11/20 07:11:57;;;;;;;7.10;2.20;;;8.30;1.00;;;;;;5001103;28;20420;-54
2022/11/20 07:14:23;;;;;;;8.43;2.63;;;6.80;76.30;;;;;;5003707;28;20421;-59
2022/11/20 07:16:49;;;;;;;7.00;2.30;;;6.90;1.00;;;;;;4994977;28;20403;-54
2022/11/20 07:19:14;;;;;;;7.30;2.40;;;7.00;99.90;;;;;;5006210;28;20413;-54
2022/11/20 07:21:40;;;;;;;6.47;2.50;;;7.10;21.10;;;;;;4999358;28;20449;-55
2022/11/20 07:24:05;;;;;;;7.00;2.20;;;7.20;1.00;;;;;;4998359;28;20803;-54
2022/11/20 07:26:31;;;;;;;5.37;1.70;;;7.20;1.00;;;;;;4996614;28;20492;-54
2022/11/20 07:28:56;;;;;;;5.00;1.60;;;8.20;1.00;;;;;;5009552;28;20406;-53
2022/11/20 07:31:22;;;;;;;5.40;1.80;;;7.40;1.00;;;;;;4994204;28;20445;-60
2022/11/20 07:33:48;;;;;;;8.20;1.90;;;7.40;1.00;;;;;;5000639;28;20424;-54
2022/11/20 07:36:13;;;;;;;5.47;1.70;;;7.50;1.00;;;;;;5006636;28;20420;-55
2022/11/20 07:38:39;;;;;;;5.63;1.98;;;7.40;1.00;;;;;;4995865;28;20422;-54
2022/11/20 07:41:05;;;;;;;6.60;1.87;;;7.40;1.00;;;;;;4992728;28;20415;-55
2022/11/20 07:43:30;;;;;;;6.57;1.60;;;8.40;1.00;;;;;;5002013;28;20598;-54
2022/11/20 07:45:57;;;;;;;6.77;2.27;;;7.30;1.00;;;;;;4982342;28;20398;-54
2022/11/20 07:48:24;;;;;;;6.10;1.90;;;7.20;99.90;;;;;;5013447;28;20509;-60
2022/11/20 07:50:53;;;;;;;5.40;1.70;;;7.10;99.90;;;;;;5000850;28;21047;-53
2022/11/20 07:53:20;;;;;;;5.50;1.75;;;8.10;99.90;;;;;;5006693;28;20428;-53
2022/11/20 07:55:46;;;;;;;6.05;1.88;;;7.10;99.90;;;;;;4991829;28;20420;-53
2022/11/20 07:58:13;;;;;;;7.70;2.20;;;7.10;99.90;;;;;;5004379;28;20406;-54
2022/11/20 08:00:39;;;;;;;5.80;1.98;;;7.20;99.90;;;;;;4992457;28;20937;-57
2022/11/20 08:03:06;;;;;;;5.10;1.83;;;7.20;99.90;;;;;;5005717;28;20404;-53
2022/11/20 08:05:32;;;;;;;6.30;2.00;;;7.40;99.90;;;;;;5002108;28;20988;-54
2022/11/20 08:07:57;;;;;;;6.65;1.95;;;7.50;99.90;;;;;;4993546;28;20438;-53
2022/11/20 08:10:23;;;;;;;8.20;2.10;;;7.60;95.30;;;;;;4998471;28;20437;-59
2022/11/20 08:15:36;;;;;;;5.28;1.52;;;7.70;24.70;;;;;;4999787;28;20433;-54
2022/11/20 08:18:05;;;;;;;5.72;1.70;;;7.80;1.00;;;;;;5001237;28;20393;-54
2022/11/20 08:20:31;;;;;;;4.90;1.20;;;7.90;1.00;;;;;;5007182;28;20499;-53
2022/11/20 08:23:06;;;;;;;6.03;1.50;;;7.90;99.90;;;;;;5004238;28;20506;-54
2022/11/20 08:25:33;;;;;;;6.13;1.37;;;8.00;99.90;;;;;;5001830;28;20837;-55
2022/11/20 08:28:00;;;;;;;5.07;1.17;;;8.00;8.10;;;;;;4999351;28;20411;-54
2022/11/20 08:30:26;;;;;;;4.95;1.00;;;8.00;1.00;;;;;;5009552;28;20825;-60
2022/11/20 08:32:53;;;;;;;4.30;0.90;;;8.10;1.00;;;;;;4995595;28;20567;-54
2022/11/20 08:35:19;;;;;;;4.30;0.90;;;8.40;99.90;;;;;;4991636;28;20882;-56
2022/11/20 08:37:48;;;;;;;5.10;0.80;;;7.90;99.90;;;;;;4997921;28;20405;-56
2022/11/20 08:40:14;;;;;;;4.00;0.50;;;7.90;1.00;;;;;;5009706;28;20483;-53
2022/11/20 08:42:50;;;;;;;5.32;0.60;;;7.90;99.90;;;;;;5000550;28;20886;-55
2022/11/20 08:45:17;;;;;;;3.92;0.55;;;7.80;99.90;;;;;;4982858;28;20771;-54
2022/11/20 08:47:43;;;;;;;4.25;0.80;;;7.80;1.00;;;;;;5001757;28;20493;-53
2022/11/20 08:50:10;;;;;;;4.30;0.60;;;7.80;15.70;;;;;;5001724;28;20421;-55
2022/11/20 08:52:36;;;;;;;4.03;0.70;;;7.70;2.30;;;;;;4992913;28;20874;-53
2022/11/20 08:55:03;;;;;;;3.90;0.68;;;7.60;1.00;;;;;;5003997;28;20396;-55
2022/11/20 08:57:34;;;;;;;3.70;0.50;;;7.60;99.90;;;;;;5001264;28;20476;-53
2022/11/20 09:00:00;;;;;;;4.00;0.60;;;7.60;99.90;;;;;;5005943;28;20397;-54
2022/11/20 09:02:26;;;;;;;3.72;0.50;;;7.70;99.90;;;;;;5007070;28;20867;-58
2022/11/20 09:04:53;;;;;;;4.20;0.67;;;7.80;99.90;;;;;;5011948;28;20403;-55
2022/11/20 09:07:19;;;;;;;4.28;0.77;;;7.80;1.00;;;;;;5007422;28;20389;-54
2022/11/20 09:09:44;;;;;;;4.13;0.70;;;7.80;99.90;;;;;;5004623;28;20412;-54
2022/11/20 09:12:10;;;;;;;3.80;0.60;;;7.80;99.90;;;;;;5002121;28;20479;-54
2022/11/20 09:14:36;;;;;;;4.10;0.50;;;7.90;99.90;;;;;;5007174;28;20500;-55
2022/11/20 09:17:01;;;;;;;4.30;0.80;;;7.80;99.90;;;;;;5000794;28;20412;-54
2022/11/20 09:19:27;;;;;;;3.85;0.60;;;7.70;99.90;;;;;;5000971;28;20758;-59
2022/11/20 09:21:53;;;;;;;3.80;0.50;;;7.80;99.90;;;;;;5006798;28;20484;-55
2022/11/20 09:24:20;;;;;;;6.00;0.70;;;7.80;1.00;;;;;;5000886;28;20415;-57
2022/11/20 09:26:46;;;;;;;4.43;0.90;;;7.90;1.00;;;;;;4988918;28;20715;-55
2022/11/20 09:29:11;;;;;;;3.88;0.50;;;7.80;1.00;;;;;;5007032;28;20948;-56
2022/11/20 09:31:37;;;;;;;5.00;0.80;;;7.70;1.00;;;;;;5006896;28;20451;-57
2022/11/20 09:34:02;;;;;;;3.70;0.40;;;7.70;99.90;;;;;;5009016;28;20539;-54
2022/11/20 09:36:28;;;;;;;4.00;0.70;;;7.60;1.00;;;;;;4990650;28;20406;-58
2022/11/20 09:38:54;;;;;;;4.40;0.60;;;8.40;1.00;;;;;;4999304;28;20752;-54
2022/11/20 09:41:45;;;;;;;4.00;0.60;;;7.70;1.00;;;;;;4996979;28;20414;-54
2022/11/20 09:44:45;;;;;;;3.78;0.50;;;7.80;1.00;;;;;;4978963;28;20816;-55
2022/11/20 09:47:27;;;;;;;4.00;0.75;;;7.80;1.00;;;;;;4980502;28;20414;-54
2022/11/20 09:50:27;;;;;;;3.90;0.60;;;7.70;1.00;;;;;;5002284;28;20410;-54
2022/11/20 09:53:11;;;;;;;4.43;0.70;;;7.70;1.00;;;;;;4995402;28;20446;-55
2022/11/20 09:55:37;;;;;;;4.10;0.80;;;7.90;1.00;;;;;;4997015;28;20393;-54
2022/11/20 09:58:10;;;;;;;4.20;0.70;;;8.00;1.00;;;;;;4997430;28;20407;-55
2022/11/20 10:00:37;;;;;;;4.07;0.80;;;8.00;1.00;;;;;;4995494;28;20393;-53
2022/11/20 10:03:13;;;;;;;4.50;0.80;;;7.90;1.00;;;;;;5004192;28;20877;-55
2022/11/20 10:05:53;;;;;;;5.20;1.10;;;7.90;1.00;;;;;;4996627;28;20415;-55
2022/11/20 10:08:30;;;;;;;5.00;1.20;;;7.90;99.90;;;;;;5006461;28;20415;-55
2022/11/20 10:11:28;;;;;;;5.10;1.00;;;7.90;99.90;;;;;;4994727;28;20453;-54
2022/11/20 10:14:15;;;;;;;5.50;1.30;;;7.90;99.90;;;;;;4988657;28;20445;-57
2022/11/20 10:17:09;;;;;;;4.40;1.00;;;7.90;1.00;;;;;;4993574;28;20406;-54
2022/11/20 10:19:59;;;;;;;5.30;1.30;;;7.90;99.90;;;;;;4994779;28;20437;-54
2022/11/20 10:22:38;;;;;;;4.95;1.30;;;7.80;1.00;;;;;;4993901;28;20398;-57
2022/11/20 10:25:29;;;;;;;5.50;1.60;;;7.70;1.00;;;;;;5002605;28;20397;-53
2022/11/20 10:28:26;;;;;;;4.60;1.10;;;7.70;1.00;;;;;;5001513;28;20436;-56
2022/11/20 10:31:00;;;;;;;4.30;1.02;;;7.60;1.00;;;;;;4989099;28;20473;-54
2022/11/20 10:33:31;;;;;;;4.40;1.10;;;7.60;99.90;;;;;;5010310;28;20418;-58
2022/11/20 10:36:26;;;;;;;4.90;1.10;;;7.70;1.00;;;;;;4994849;28;20831;-55
2022/11/20 10:39:00;;;;;;;5.00;1.00;;;7.60;99.90;;;;;;4996498;28;20396;-55
2022/11/20 10:41:34;;;;;;;4.60;1.05;;;7.70;99.90;;;;;;5006550;28;20397;-58
2022/11/20 10:47:15;;;;;;;4.38;0.80;;;7.50;99.90;;;;;;5010831;28;20504;-54
2022/11/20 10:49:43;;;;;;;3.97;0.80;;;7.40;1.00;;;;;;5014762;28;20405;-53
2022/11/20 10:52:47;;;;;;;4.25;1.10;;;7.30;1.00;;;;;;5016439;28;20422;-56
2022/11/20 10:55:37;;;;;;;6.20;1.10;;;7.40;1.00;;;;;;4997318;28;20738;-53
2022/11/20 10:58:44;;;;;;;7.63;1.60;;;7.30;1.00;;;;;;5008419;28;20389;-54
2022/11/20 11:01:16;;;;;;;4.88;1.60;;;7.90;1.00;;;;;;4968543;28;20429;-55
2022/11/20 11:03:45;;;;;;;5.40;1.60;;;7.50;1.00;;;;;;5010979;28;20393;-54
2022/11/20 11:06:23;;;;;;;5.38;1.30;;;7.60;1.00;;;;;;5005252;28;20397;-55
2022/11/20 11:08:51;;;;;;;5.18;1.40;;;7.50;1.00;;;;;;5006615;28;20730;-54
2022/11/20 11:11:27;;;;;;;5.30;1.80;;;7.60;1.00;;;;;;5010804;28;20399;-53
2022/11/20 11:13:53;;;;;;;6.73;2.50;;;7.70;1.00;;;;;;5006916;28;20452;-54
2022/11/20 11:16:25;;;;;;;5.90;2.10;;;7.90;1.00;;;;;;5011099;28;20425;-54
2022/11/20 11:18:51;;;;;;;6.97;1.90;;;7.80;1.00;;;;;;5011491;28;20488;-55
2022/11/20 11:21:24;;;;;;;5.20;1.60;;;7.80;1.00;;;;;;5011598;28;20492;-54
2022/11/20 11:24:03;;;;;;;5.40;1.70;;;7.90;1.00;;;;;;5017754;28;20407;-53
2022/11/20 11:26:30;;;;;;;7.50;2.20;;;8.00;1.00;;;;;;5013735;28;20457;-59
2022/11/20 11:28:59;;;;;;;8.95;2.40;;;8.40;1.00;;;;;;5014482;28;20910;-57
2022/11/20 11:31:29;;;;;;;5.30;2.10;;;9.00;99.90;;;;;;5020752;28;20922;-58
2022/11/20 11:34:23;;;;;;;7.05;1.92;;;9.10;65.80;;;;;;5022601;28;20431;-54
2022/11/20 11:36:57;;;;;;;5.40;1.80;;;9.40;99.90;;;;;;4995921;28;20409;-55
2022/11/20 11:39:24;;;;;;;9.40;2.00;;;9.60;1.00;;;;;;5020862;28;20492;-55
2022/11/20 11:41:51;;;;;;;5.95;1.70;;;9.60;99.90;;;;;;5016838;28;20433;-53
2022/11/20 11:47:45;;;;;;;5.20;1.50;;;9.20;99.90;;;;;;5022665;28;20432;-54
2022/11/20 11:50:11;;;;;;;5.38;1.30;;;9.50;99.90;;;;;;4998614;28;20397;-53
2022/11/20 11:52:53;;;;;;;5.50;1.37;;;9.70;1.00;;;;;;5010643;28;20438;-56
2022/11/20 11:55:37;;;;;;;5.45;1.50;;;10.00;1.00;;;;;;5011521;28;20828;-55
2022/11/20 11:58:15;;;;;;;6.90;1.20;;;10.30;1.00;;;;;;5017786;28;20387;-54
2022/11/20 12:00:50;;;;;;;8.18;1.35;;;10.60;99.90;;;;;;5030332;28;20379;-54
2022/11/20 12:03:18;;;;;;;5.43;1.20;;;10.40;1.00;;;;;;5031244;28;20429;-55
2022/11/20 12:05:53;;;;;;;10.18;1.45;;;10.10;1.00;;;;;;5030052;28;20414;-54
2022/11/20 12:08:31;;;;;;;6.00;1.40;;;9.70;1.00;;;;;;5026073;28;20389;-54
2022/11/20 12:11:03;;;;;;;5.70;1.30;;;9.50;1.00;;;;;;5003580;28;20400;-56
2022/11/20 12:13:39;;;;;;;4.90;1.30;;;9.50;1.00;;;;;;5002640;28;20421;-60
2022/11/20 12:16:10;;;;;;;4.50;1.00;;;9.80;1.00;;;;;;5008112;28;20787;-54
2022/11/20 12:18:36;;;;;;;6.63;1.10;;;10.30;1.00;;;;;;5017097;28;20927;-55
2022/11/20 12:21:23;;;;;;;5.10;1.00;;;10.70;1.00;;;;;;5021176;28;20388;-55
2022/11/20 12:23:58;;;;;;;7.13;1.00;;;10.90;99.90;;;;;;5012118;28;21088;-55
2022/11/20 12:27:12;;;;;;;6.18;1.00;;;10.80;99.90;;;;;;5021258;28;20883;-54
2022/11/20 12:29:53;;;;;;;5.28;1.33;;;10.90;99.90;;;;;;4919931;29;20396;-55
2022/11/20 12:32:31;;;;;;;4.70;1.10;;;10.80;99.90;;;;;;4989479;28;20784;-54
2022/11/20 12:35:24;;;;;;;5.20;0.80;;;10.60;1.00;;;;;;5018128;28;20474;-55
2022/11/20 12:38:23;;;;;;;5.50;1.10;;;10.60;1.00;;;;;;5017006;28;20400;-55
2022/11/20 12:40:58;;;;;;;5.10;1.00;;;10.90;1.00;;;;;;4998483;28;20591;-54
2022/11/20 12:46:22;;;;;;;4.80;1.15;;;10.60;1.00;;;;;;5016787;28;20412;-54
2022/11/20 12:49:29;;;;;;;6.30;1.00;;;10.70;1.00;;;;;;5018983;28;20381;-54
2022/11/20 12:52:22;;;;;;;4.45;0.77;;;10.60;1.00;;;;;;5008405;28;20452;-54
2022/11/20 12:55:03;;;;;;;4.90;0.77;;;10.70;1.00;;;;;;5014975;28;20789;-52
2022/11/20 12:57:37;;;;;;;4.75;0.90;;;10.80;1.00;;;;;;5020988;28;20472;-58
2022/11/20 13:00:15;;;;;;;7.10;1.30;;;10.60;1.00;;;;;;5018575;28;20418;-55
2022/11/20 13:02:58;;;;;;;5.70;1.00;;;10.90;1.00;;;;;;5013495;28;20507;-56
2022/11/20 13:05:52;;;;;;;6.97;0.95;;;10.80;1.00;;;;;;5012465;28;20424;-54
2022/11/20 13:08:25;;;;;;;4.80;0.90;;;10.60;1.00;;;;;;5015803;28;20400;-54
2022/11/20 13:11:17;;;;;;;4.13;0.50;;;10.40;1.00;;;;;;5015848;28;20422;-55
2022/11/20 13:13:55;;;;;;;5.40;0.70;;;9.90;1.00;;;;;;5013222;28;20421;-56
2022/11/20 13:16:38;;;;;;;4.50;0.80;;;9.50;1.00;;;;;;5011064;28;20437;-55
2022/11/20 13:19:05;;;;;;;4.67;0.80;;;9.80;1.00;;;;;;5015789;28;20487;-54
2022/11/20 13:21:40;;;;;;;5.70;1.10;;;10.10;1.00;;;;;;5022085;28;20387;-55
2022/11/20 13:24:19;;;;;;;4.70;0.80;;;10.20;1.00;;;;;;5006520;28;20407;-54
2022/11/20 13:26:45;;;;;;;6.50;0.83;;;10.20;1.00;;;;;;5007467;28;20861;-55
2022/11/20 13:29:16;;;;;;;4.80;0.80;;;10.20;1.00;;;;;;4995256;28;20464;-53
2022/11/20 13:31:45;;;;;;;4.55;0.88;;;10.10;1.00;;;;;;5012142;28;20751;-53